Have a Safe July 4th! 

Flight Track Log - Related Links

Times and Time Zones

All times are in EDT time to prevent confusion due to time zone crossing. See the AMF1021 flight status page for this flight to view local times or setup timezone preferences in your user account.

Time Position Orientation Groundspeed Altitude Reporting Facility
EDT Latitude Longitude Course Direction KTS MPH feet Rate Location/Type
Tue 07:36:21 PM 46.2886 -87.3522 148° Southeast 183 211 3,800  Level Minneapolis Center
Tue 07:37:24 PM 46.2403 -87.3028 145° Southeast 206 237 5,500 1,742 Climbing Minneapolis Center
Tue 07:38:25 PM 46.1811 -87.2544 151° Southeast 222 255 7,400 1,805 Climbing Minneapolis Center
Tue 07:39:27 PM 46.1253 -87.2058 149° Southeast 231 266 9,200 1,839 Climbing Minneapolis Center
Tue 07:40:29 PM 46.0703 -87.1600 150° Southeast 222 255 11,200 1,742 Climbing Minneapolis Center
Tue 07:41:31 PM 46.0156 -87.1150 150° Southeast 223 257 12,800 1,500 Climbing Minneapolis Center
Tue 07:42:33 PM 45.9614 -87.0697 150° Southeast 223 257 14,300 1,306 Climbing Minneapolis Center
Tue 07:43:35 PM 45.9039 -87.0222 150° Southeast 234 269 15,500 1,258 Climbing Minneapolis Center
Tue 07:44:37 PM 45.8408 -86.9711 151° Southeast 238 274 16,900 726 Climbing Minneapolis Center
Tue 07:45:39 PM 45.7789 -86.9183 149° Southeast 257 296 17,000 44 Climbing Minneapolis Center
Tue 07:46:53 PM 45.7186 -86.8686 150° Southeast 270 311 17,000  Level Minneapolis Center
Tue 07:47:56 PM 45.6383 -86.8022 150° Southeast 278 320 17,000  Level Minneapolis Center
Tue 07:48:58 PM 45.5578 -86.7372 151° Southeast 279 321 17,000 -48 Level Minneapolis Center
Tue 07:50:00 PM 45.4919 -86.6825 150° Southeast 274 315 16,900  Descending Minneapolis Center
Tue 07:51:01 PM 45.4242 -86.6286 151° Southeast 279 321 17,000 49 Climbing Minneapolis Center
Tue 07:52:03 PM 45.3583 -86.5747 150° Southeast 275 316 17,000  Level Minneapolis Center
Tue 07:53:05 PM 45.2917 -86.5203 150° Southeast 276 318 17,000  Level Minneapolis Center
Tue 07:54:07 PM 45.2242 -86.4650 150° Southeast 279 321 17,000  Level Minneapolis Center
Tue 07:55:09 PM 45.1436 -86.4008 151° Southeast 277 319 17,000  Level Minneapolis Center
Tue 07:56:11 PM 45.0769 -86.3467 150° Southeast 278 320 17,000  Level Minneapolis Center
Tue 07:57:13 PM 45.0106 -86.2939 151° Southeast 275 316 17,000  Level Minneapolis Center
Tue 07:58:15 PM 44.9436 -86.2392 150° Southeast 277 319 17,000  Level Minneapolis Center
Tue 07:59:17 PM 44.8917 -86.1967 150° Southeast 273 314 17,000  Level Minneapolis Center
Tue 08:00:19 PM 44.8000 -86.1264 151° Southeast 274 315 17,000  Level Minneapolis Center
Tue 08:01:21 PM 44.7347 -86.0744 151° Southeast 279 321 17,000  Level Minneapolis Center
Tue 08:02:23 PM 44.6686 -86.0203 150° Southeast 280 322 17,000  Level Minneapolis Center
Tue 08:03:25 PM 44.6025 -85.9669 150° Southeast 276 318 17,000  Level Minneapolis Center
Tue 08:04:26 PM 44.5339 -85.9153 152° Southeast 279 321 17,000  Level Minneapolis Center
Tue 08:05:28 PM 44.4531 -85.8517 151° Southeast 278 320 17,000  Level Minneapolis Center
Tue 08:06:30 PM 44.3856 -85.7981 150° Southeast 278 320 17,000  Level Minneapolis Center
Tue 08:07:32 PM 44.3172 -85.7453 151° Southeast 280 322 17,000  Level Minneapolis Center
Tue 08:08:34 PM 44.2497 -85.6928 151° Southeast 278 320 17,000  Level Minneapolis Center
Tue 08:09:36 PM 44.1822 -85.6403 151° Southeast 278 320 17,000  Level Minneapolis Center
Tue 08:10:37 PM 44.1158 -85.5881 151° Southeast 276 318 17,000  Level Minneapolis Center
Tue 08:11:39 PM 44.0450 -85.5350 152° Southeast 275 316 17,000  Level Minneapolis Center
Tue 08:12:41 PM 43.9775 -85.4842 152° Southeast 275 316 17,000  Level Minneapolis Center
Tue 08:13:43 PM 43.9100 -85.4319 151° Southeast 276 318 17,000  Level Minneapolis Center
Tue 08:14:45 PM 43.8294 -85.3697 151° Southeast 277 319 17,000  Level Minneapolis Center
Tue 08:15:46 PM 43.7628 -85.3186 151° Southeast 275 316 17,000  Level Minneapolis Center
Tue 08:16:48 PM 43.6947 -85.2686 152° Southeast 275 316 17,000  Level Minneapolis Center
Tue 08:17:50 PM 43.6278 -85.2178 151° Southeast 275 316 17,000  Level Minneapolis Center
Tue 08:18:32 PM 43.5869 -85.1878 152° Southeast 276 318 17,000  Level Chicago Center
Tue 08:19:34 PM 43.5061 -85.1264 151° Southeast 276 318 17,000 -339 Level Chicago Center
Tue 08:20:36 PM 43.4372 -85.0731 151° Southeast 284 327 16,300 -1,113 Descending Chicago Center
Tue 08:21:38 PM 43.3647 -85.0189 151° Southeast 295 339 14,700 -1,403 Descending Chicago Center
Tue 08:22:40 PM 43.2944 -84.9686 152° Southeast 287 330 13,400 -1,161 Descending Chicago Center
Tue 08:23:42 PM 43.2222 -84.9156 152° Southeast 292 336 12,300 -1,016 Descending Chicago Center
Tue 08:24:44 PM 43.1536 -84.8594 149° Southeast 286 329 11,300 -1,306 Descending Chicago Center
Tue 08:25:46 PM 43.0739 -84.7903 148° Southeast 282 325 9,600 -1,355 Descending Chicago Center
Tue 08:26:48 PM 43.0203 -84.7167 135° Southeast 274 315 8,500 -1,403 Descending Chicago Center
Tue 08:27:50 PM 42.9778 -84.6311 124° Southeast 271 312 6,700 -1,645 Descending Chicago Center
Tue 08:28:52 PM 42.9342 -84.5503 126° Southeast 267 307 5,100 -1,355 Descending Chicago Center
Tue 08:29:54 PM 42.8717 -84.5150 158° South 254 292 3,900 -1,161 Descending Chicago Center
Tue 08:31:00 PM 42.8046 -84.5663 160° South  Level Estimated

Login

Don't have an account? Register now (free) for customized features, flight alerts, and more!